Time;durP1;ratioP1;P1;durP2;ratioP2;P2;SDS_P1;SDS_P2;PMS_P1;PMS_P2;Temp;Humidity;BMP_temperature;BMP_pressure;BME280_temperature;BME280_humidity;BME280_pressure;Samples;Min_cycle;Max_cycle;Signal;HPM_P1;HPM_P2
2023/07/02 00:02:08;;;;;;;74.95;69.28;;;;;;;;;;5042148;28;20472;-53
2023/07/02 00:04:33;;;;;;;67.85;62.53;;;;;;;;;;5042499;28;20027;-50
2023/07/02 00:06:59;;;;;;;78.03;71.78;;;;;;;;;;5034054;28;20048;-54
2023/07/02 00:09:24;;;;;;;73.43;68.13;;;;;;;;;;5038823;28;20481;-51
2023/07/02 00:11:49;;;;;;;70.30;65.15;;;;;;;;;;5037028;28;20041;-54
2023/07/02 00:14:15;;;;;;;85.10;78.47;;;;;;;;;;5029739;28;20547;-53
2023/07/02 00:16:45;;;;;;;78.97;72.95;;;;;;;;;;5040450;28;20083;-55
2023/07/02 00:19:10;;;;;;;83.65;77.55;;;;;;;;;;5029981;28;20555;-56
2023/07/02 00:21:37;;;;;;;81.90;75.90;;;;;;;;;;5028954;28;20025;-53
2023/07/02 00:24:03;;;;;;;84.68;78.57;;;;;;;;;;5041312;28;20036;-55
2023/07/02 00:26:28;;;;;;;98.13;91.03;;;;;;;;;;5032160;28;20033;-54
2023/07/02 00:28:54;;;;;;;104.40;97.05;;;;;;;;;;5028743;28;20037;-55
2023/07/02 00:31:19;;;;;;;117.43;108.82;;;;;;;;;;5037694;28;20029;-52
2023/07/02 00:33:44;;;;;;;93.28;86.35;;;;;;;;;;5046704;28;20482;-51
2023/07/02 00:36:14;;;;;;;87.82;81.43;;;;;;;;;;5039753;28;20583;-56
2023/07/02 00:38:40;;;;;;;98.05;91.18;;;;;;;;;;5027416;28;20465;-51
2023/07/02 00:41:05;;;;;;;88.43;81.95;;;;;;;;;;5035664;28;20158;-52
2023/07/02 00:43:31;;;;;;;82.95;76.88;;;;;;;;;;5047705;28;20127;-53
2023/07/02 00:45:56;;;;;;;87.32;80.70;;;;;;;;;;5029760;28;20384;-51
2023/07/02 00:48:21;;;;;;;118.70;110.00;;;;;;;;;;5028870;28;20033;-52
2023/07/02 00:50:46;;;;;;;86.87;80.83;;;;;;;;;;5032356;28;20020;-51
2023/07/02 00:53:12;;;;;;;85.00;78.72;;;;;;;;;;5047667;28;20782;-55
2023/07/02 00:55:38;;;;;;;85.70;79.32;;;;;;;;;;5044577;28;20532;-53
2023/07/02 00:58:03;;;;;;;88.43;82.03;;;;;;;;;;5028959;28;20025;-55
2023/07/02 01:00:28;;;;;;;90.97;84.10;;;;;;;;;;5029934;28;20625;-53
2023/07/02 01:02:58;;;;;;;89.70;83.10;;;;;;;;;;5045691;28;20123;-55
2023/07/02 01:05:25;;;;;;;93.75;86.90;;;;;;;;;;5044734;28;20025;-55
2023/07/02 01:07:50;;;;;;;104.18;96.53;;;;;;;;;;5029470;28;20025;-54
2023/07/02 01:10:15;;;;;;;107.47;99.87;;;;;;;;;;5046195;28;20013;-55
2023/07/02 01:12:41;;;;;;;98.50;91.35;;;;;;;;;;5033308;28;20286;-54
2023/07/02 01:15:07;;;;;;;110.90;103.13;;;;;;;;;;5028045;28;20060;-55
2023/07/02 01:17:41;;;;;;;110.43;102.35;;;;;;;;;;5029093;28;20073;-51
2023/07/02 01:20:08;;;;;;;116.60;108.40;;;;;;;;;;5026831;28;20030;-52
2023/07/02 01:22:33;;;;;;;119.07;110.47;;;;;;;;;;5047539;28;20024;-52
2023/07/02 01:24:58;;;;;;;122.22;113.63;;;;;;;;;;5045313;28;20037;-51
2023/07/02 01:27:24;;;;;;;101.97;94.63;;;;;;;;;;5028713;28;20040;-55
2023/07/02 01:29:53;;;;;;;125.47;116.00;;;;;;;;;;5027415;28;20527;-52
2023/07/02 01:32:18;;;;;;;107.53;99.72;;;;;;;;;;5027634;28;20029;-53
2023/07/02 01:34:44;;;;;;;108.82;100.95;;;;;;;;;;5027485;28;20586;-54
2023/07/02 01:37:09;;;;;;;153.52;142.07;;;;;;;;;;5027374;28;20022;-53
2023/07/02 01:39:34;;;;;;;132.05;122.38;;;;;;;;;;5027402;28;20044;-51
2023/07/02 01:42:15;;;;;;;113.28;105.13;;;;;;;;;;5027209;28;20633;-53
2023/07/02 01:44:41;;;;;;;128.95;119.60;;;;;;;;;;5028233;28;20452;-52
2023/07/02 01:47:06;;;;;;;200.73;186.75;;;;;;;;;;5029006;28;20060;-54
2023/07/02 01:49:32;;;;;;;140.30;130.02;;;;;;;;;;5046400;28;20037;-51
2023/07/02 01:51:57;;;;;;;158.70;147.38;;;;;;;;;;5046543;28;20024;-55
2023/07/02 01:54:23;;;;;;;138.10;128.00;;;;;;;;;;5046277;28;20021;-50
2023/07/02 01:56:49;;;;;;;126.20;116.90;;;;;;;;;;5029522;28;20079;-53
2023/07/02 01:59:14;;;;;;;133.00;123.30;;;;;;;;;;5027483;28;20369;-55
2023/07/02 02:01:40;;;;;;;135.63;125.70;;;;;;;;;;5027438;28;20032;-55
2023/07/02 02:04:09;;;;;;;113.82;105.45;;;;;;;;;;5033156;28;20422;-51
2023/07/02 02:06:34;;;;;;;;;;;;;;;;;;5045241;28;20033;-53
2023/07/02 02:09:00;;;;;;;127.60;118.35;;;;;;;;;;5047061;28;19920;-55
2023/07/02 02:11:25;;;;;;;130.70;121.47;;;;;;;;;;5038858;28;20029;-51
2023/07/02 02:13:51;;;;;;;162.32;150.05;;;;;;;;;;5027068;28;20064;-53
2023/07/02 02:16:16;;;;;;;125.80;116.35;;;;;;;;;;5030381;28;20100;-56
2023/07/02 02:18:42;;;;;;;103.32;95.75;;;;;;;;;;5026539;28;20075;-51
2023/07/02 02:21:07;;;;;;;111.60;103.65;;;;;;;;;;5032974;28;20175;-51
2023/07/02 02:23:32;;;;;;;141.57;131.02;;;;;;;;;;5026413;28;20483;-54
2023/07/02 02:25:58;;;;;;;88.38;81.82;;;;;;;;;;5026707;28;20601;-51
2023/07/02 02:28:23;;;;;;;110.60;102.13;;;;;;;;;;5026446;28;20026;-53
2023/07/02 02:30:48;;;;;;;109.65;101.72;;;;;;;;;;5035000;28;20777;-54
2023/07/02 02:33:13;;;;;;;135.90;125.90;;;;;;;;;;5041930;28;20040;-54
2023/07/02 02:35:39;;;;;;;138.57;128.48;;;;;;;;;;5041620;28;20021;-55
2023/07/02 02:38:04;;;;;;;133.43;123.57;;;;;;;;;;5025677;28;20029;-52
2023/07/02 02:40:30;;;;;;;133.63;123.70;;;;;;;;;;5026351;28;20323;-55
2023/07/02 02:42:55;;;;;;;132.38;122.60;;;;;;;;;;5026097;28;20021;-53
2023/07/02 02:45:20;;;;;;;152.80;141.57;;;;;;;;;;5028256;28;20392;-51
2023/07/02 02:47:46;;;;;;;119.77;110.93;;;;;;;;;;5029999;28;20249;-50
2023/07/02 02:50:12;;;;;;;104.35;95.78;;;;;;;;;;5030648;28;20306;-53
2023/07/02 02:52:37;;;;;;;96.78;89.68;;;;;;;;;;5035163;28;20033;-55
2023/07/02 02:55:03;;;;;;;110.78;102.85;;;;;;;;;;5027322;28;20055;-51
2023/07/02 02:57:28;;;;;;;122.53;113.47;;;;;;;;;;5045530;28;20039;-51
2023/07/02 02:59:54;;;;;;;145.20;134.63;;;;;;;;;;5045062;28;20037;-52
2023/07/02 03:02:19;;;;;;;162.70;150.50;;;;;;;;;;5044949;28;20029;-55
2023/07/02 03:04:45;;;;;;;137.80;127.60;;;;;;;;;;5044913;28;20319;-52
2023/07/02 03:07:10;;;;;;;141.25;130.98;;;;;;;;;;5045240;28;20617;-54
2023/07/02 03:09:35;;;;;;;146.35;135.65;;;;;;;;;;5045306;28;20096;-51
2023/07/02 03:12:01;;;;;;;149.63;138.27;;;;;;;;;;5037444;28;20018;-55
2023/07/02 03:14:26;;;;;;;134.65;124.07;;;;;;;;;;5030199;28;20449;-53
2023/07/02 03:16:51;;;;;;;141.60;130.75;;;;;;;;;;5042710;28;20116;-50
2023/07/02 03:19:17;;;;;;;148.43;137.27;;;;;;;;;;5042020;28;20501;-53
2023/07/02 03:21:43;;;;;;;148.00;136.95;;;;;;;;;;5025862;28;20021;-51
2023/07/02 03:24:11;;;;;;;141.50;131.25;;;;;;;;;;5025242;28;20014;-55
2023/07/02 03:26:36;;;;;;;137.90;127.93;;;;;;;;;;5026396;28;20064;-50
2023/07/02 03:29:02;;;;;;;162.82;149.88;;;;;;;;;;5025519;28;20533;-56
2023/07/02 03:31:27;;;;;;;167.13;154.13;;;;;;;;;;5025827;28;20377;-53
2023/07/02 03:33:52;;;;;;;154.63;142.90;;;;;;;;;;5025088;28;20021;-53
2023/07/02 03:36:17;;;;;;;123.77;114.83;;;;;;;;;;5039731;28;20036;-54
2023/07/02 03:38:43;;;;;;;140.97;130.60;;;;;;;;;;5024438;28;20255;-52
2023/07/02 03:41:08;;;;;;;141.02;130.55;;;;;;;;;;5024895;28;20757;-53
2023/07/02 03:43:34;;;;;;;130.18;120.50;;;;;;;;;;5025612;28;20029;-50
2023/07/02 03:45:59;;;;;;;141.07;130.35;;;;;;;;;;5034808;28;20285;-54
2023/07/02 03:48:24;;;;;;;132.90;122.93;;;;;;;;;;5025545;28;20037;-54
2023/07/02 03:50:49;;;;;;;116.90;108.17;;;;;;;;;;5025185;28;20264;-52
2023/07/02 03:53:15;;;;;;;127.73;118.17;;;;;;;;;;5027475;28;21067;-54
2023/07/02 03:55:40;;;;;;;135.48;125.63;;;;;;;;;;5034514;28;20246;-53
2023/07/02 03:58:06;;;;;;;152.15;140.40;;;;;;;;;;5023895;28;20090;-53
2023/07/02 04:00:31;;;;;;;119.28;110.30;;;;;;;;;;5041856;28;20025;-55
2023/07/02 04:02:56;;;;;;;123.20;113.90;;;;;;;;;;5045006;28;20048;-55
2023/07/02 04:05:21;;;;;;;138.30;127.70;;;;;;;;;;5044929;28;20239;-54
2023/07/02 04:07:47;;;;;;;174.50;161.20;;;;;;;;;;5045451;28;20964;-53
2023/07/02 04:10:12;;;;;;;120.15;110.95;;;;;;;;;;5045128;28;20306;-55
2023/07/02 04:12:37;;;;;;;147.85;136.35;;;;;;;;;;5044938;28;20479;-53
2023/07/02 04:15:03;;;;;;;136.07;125.68;;;;;;;;;;5044611;28;20098;-54
2023/07/02 04:17:28;;;;;;;244.60;225.82;;;;;;;;;;5034049;28;20056;-54
2023/07/02 04:19:54;;;;;;;227.43;210.30;;;;;;;;;;5039185;28;20050;-56
2023/07/02 04:22:19;;;;;;;234.85;218.68;;;;;;;;;;5025085;28;20243;-54
2023/07/02 04:24:48;;;;;;;218.68;202.02;;;;;;;;;;5042376;28;20367;-53
2023/07/02 04:27:13;;;;;;;236.13;219.02;;;;;;;;;;5027182;28;20023;-55
2023/07/02 04:29:39;;;;;;;192.70;177.82;;;;;;;;;;5024939;28;20512;-52
2023/07/02 04:32:04;;;;;;;233.00;216.37;;;;;;;;;;5024847;28;20040;-52
2023/07/02 04:34:30;;;;;;;250.73;234.52;;;;;;;;;;5021964;28;20253;-55
2023/07/02 04:36:55;;;;;;;242.57;226.73;;;;;;;;;;5024613;28;20038;-53
2023/07/02 04:39:20;;;;;;;222.02;207.50;;;;;;;;;;5025579;28;20033;-53
2023/07/02 04:41:45;;;;;;;226.80;212.10;;;;;;;;;;5053053;28;20368;-53
2023/07/02 04:44:11;;;;;;;236.53;220.73;;;;;;;;;;5024676;28;20053;-56
2023/07/02 04:46:36;;;;;;;203.80;190.25;;;;;;;;;;5036352;28;20759;-55
2023/07/02 04:49:01;;;;;;;193.23;179.57;;;;;;;;;;5044856;28;20037;-54
2023/07/02 04:51:27;;;;;;;146.57;134.83;;;;;;;;;;5033163;28;20340;-52
2023/07/02 04:53:52;;;;;;;202.88;188.43;;;;;;;;;;5027394;28;20744;-55
2023/07/02 04:56:17;;;;;;;210.73;197.35;;;;;;;;;;5027835;28;20021;-52
2023/07/02 04:58:43;;;;;;;219.40;204.40;;;;;;;;;;5040063;28;20297;-53
2023/07/02 05:01:08;;;;;;;211.73;198.37;;;;;;;;;;5048121;28;20020;-55
2023/07/02 05:03:34;;;;;;;192.13;177.35;;;;;;;;;;5061160;28;20277;-53
2023/07/02 05:05:59;;;;;;;179.30;167.32;;;;;;;;;;5037896;28;20014;-54
2023/07/02 05:08:24;;;;;;;162.57;150.90;;;;;;;;;;5042207;28;20076;-53
2023/07/02 05:10:50;;;;;;;150.38;140.13;;;;;;;;;;5032664;28;20253;-53
2023/07/02 05:13:15;;;;;;;151.73;141.30;;;;;;;;;;5027444;28;20026;-53
2023/07/02 05:15:40;;;;;;;129.70;120.72;;;;;;;;;;5027450;28;20774;-55
2023/07/02 05:18:06;;;;;;;122.90;113.87;;;;;;;;;;5027379;28;20025;-53
2023/07/02 05:20:32;;;;;;;128.93;120.32;;;;;;;;;;5028185;28;20269;-53
2023/07/02 05:22:57;;;;;;;110.10;102.63;;;;;;;;;;5027545;28;20110;-54
2023/07/02 05:25:22;;;;;;;110.67;103.23;;;;;;;;;;5027743;28;20017;-53
2023/07/02 05:27:47;;;;;;;102.20;95.20;;;;;;;;;;5027819;28;20250;-55
2023/07/02 05:30:13;;;;;;;102.60;95.33;;;;;;;;;;5030704;28;20780;-53
2023/07/02 05:32:39;;;;;;;68.40;63.70;;;;;;;;;;5045892;28;20242;-54
2023/07/02 05:35:04;;;;;;;93.97;86.95;;;;;;;;;;5041833;28;20408;-51
2023/07/02 05:37:30;;;;;;;82.50;77.07;;;;;;;;;;5027538;28;20083;-55
2023/07/02 05:39:55;;;;;;;80.47;74.93;;;;;;;;;;5027349;28;20025;-52
2023/07/02 05:42:20;;;;;;;84.70;79.10;;;;;;;;;;5036183;28;20243;-52
2023/07/02 05:44:45;;;;;;;82.43;76.20;;;;;;;;;;5035263;28;20335;-54
2023/07/02 05:47:11;;;;;;;54.35;50.25;;;;;;;;;;5043939;28;20288;-55
2023/07/02 05:49:36;;;;;;;52.50;48.17;;;;;;;;;;5047114;28;20021;-55
2023/07/02 05:52:01;;;;;;;55.10;51.17;;;;;;;;;;5030476;28;20262;-54
2023/07/02 05:54:27;;;;;;;55.85;51.80;;;;;;;;;;5027157;28;20717;-53
2023/07/02 05:56:52;;;;;;;46.00;42.53;;;;;;;;;;5028058;28;20474;-53
2023/07/02 05:59:18;;;;;;;57.97;53.57;;;;;;;;;;5027362;28;20036;-51
2023/07/02 06:01:44;;;;;;;28.73;26.08;;;;;;;;;;5041837;28;20666;-53
2023/07/02 06:04:09;;;;;;;45.97;42.03;;;;;;;;;;5045784;28;20081;-53
2023/07/02 06:06:34;;;;;;;51.43;47.37;;;;;;;;;;5034011;28;20302;-53
2023/07/02 06:09:00;;;;;;;32.20;29.20;;;;;;;;;;5026663;28;20036;-54
2023/07/02 06:11:25;;;;;;;28.65;26.10;;;;;;;;;;5030192;28;20420;-55
2023/07/02 06:13:50;;;;;;;16.90;15.13;;;;;;;;;;5043873;28;20490;-52
2023/07/02 06:16:15;;;;;;;39.30;36.03;;;;;;;;;;5032153;28;20082;-54
2023/07/02 06:18:41;;;;;;;31.85;28.42;;;;;;;;;;5027904;28;20269;-54
2023/07/02 06:21:06;;;;;;;30.88;28.25;;;;;;;;;;5027172;28;20031;-54
2023/07/02 06:23:41;;;;;;;33.80;31.02;;;;;;;;;;5026561;28;20013;-54
2023/07/02 06:26:06;;;;;;;37.42;34.05;;;;;;;;;;5034075;28;20092;-54
2023/07/02 06:28:32;;;;;;;31.10;28.37;;;;;;;;;;5046341;28;20930;-53
2023/07/02 06:30:57;;;;;;;17.93;16.00;;;;;;;;;;5043936;28;20311;-53
2023/07/02 06:33:22;;;;;;;22.43;20.17;;;;;;;;;;5037695;28;20420;-53
2023/07/02 06:35:49;;;;;;;30.93;27.90;;;;;;;;;;5045494;28;20262;-53
2023/07/02 06:38:14;;;;;;;30.75;27.73;;;;;;;;;;5040993;28;20773;-53
2023/07/02 06:40:39;;;;;;;18.90;15.70;;;;;;;;;;5029899;28;20063;-56
2023/07/02 06:43:04;;;;;;;20.20;18.33;;;;;;;;;;5046584;28;20372;-53
2023/07/02 06:45:30;;;;;;;14.77;12.20;;;;;;;;;;5031753;28;20813;-49
2023/07/02 06:47:55;;;;;;;12.53;10.33;;;;;;;;;;5046046;28;20257;-56
2023/07/02 06:50:22;;;;;;;17.90;15.73;;;;;;;;;;5042223;28;20033;-56
2023/07/02 06:52:47;;;;;;;22.75;19.98;;;;;;;;;;5037432;28;20035;-57
2023/07/02 06:55:12;;;;;;;14.60;12.13;;;;;;;;;;5043897;28;20391;-56
2023/07/02 06:57:45;;;;;;;12.33;10.63;;;;;;;;;;5040948;28;20022;-54
2023/07/02 07:00:11;;;;;;;17.15;10.18;;;;;;;;;;5025409;28;20274;-50
2023/07/02 07:02:36;;;;;;;17.90;14.27;;;;;;;;;;5044109;28;20399;-53
2023/07/02 07:05:04;;;;;;;23.37;20.30;;;;;;;;;;5030281;28;20024;-55
2023/07/02 07:07:29;;;;;;;13.70;10.57;;;;;;;;;;5025716;28;20018;-54
2023/07/02 07:09:55;;;;;;;14.73;9.50;;;;;;;;;;5025316;28;20035;-54
2023/07/02 07:12:20;;;;;;;14.38;8.70;;;;;;;;;;5032211;28;20483;-54
2023/07/02 07:14:45;;;;;;;13.40;9.13;;;;;;;;;;5029961;28;20067;-55
2023/07/02 07:17:11;;;;;;;14.25;7.57;;;;;;;;;;5039460;28;20041;-53
2023/07/02 07:19:36;;;;;;;10.57;6.97;;;;;;;;;;5045414;28;20040;-52
2023/07/02 07:22:01;;;;;;;11.90;7.03;;;;;;;;;;5033005;28;20251;-53
2023/07/02 07:24:27;;;;;;;12.63;7.07;;;;;;;;;;5043611;28;20297;-51
2023/07/02 07:26:52;;;;;;;12.33;6.50;;;;;;;;;;5030135;28;20266;-54
2023/07/02 07:29:17;;;;;;;10.93;7.10;;;;;;;;;;5025606;28;20037;-54
2023/07/02 07:31:43;;;;;;;9.27;6.70;;;;;;;;;;5028195;28;20431;-53
2023/07/02 07:34:08;;;;;;;14.07;7.40;;;;;;;;;;5045464;28;20021;-50
2023/07/02 07:36:34;;;;;;;13.17;6.77;;;;;;;;;;5032461;28;20770;-53
2023/07/02 07:38:59;;;;;;;19.77;7.10;;;;;;;;;;5026601;28;20266;-51
2023/07/02 07:41:24;;;;;;;12.90;6.00;;;;;;;;;;5034384;28;20056;-54
2023/07/02 07:43:50;;;;;;;14.43;7.93;;;;;;;;;;5041820;28;20021;-55
2023/07/02 07:46:15;;;;;;;12.17;7.20;;;;;;;;;;5033922;28;20025;-51
2023/07/02 07:48:40;;;;;;;11.13;6.40;;;;;;;;;;5045482;28;20041;-54
2023/07/02 07:51:05;;;;;;;18.33;8.63;;;;;;;;;;5036535;28;20025;-52
2023/07/02 07:53:31;;;;;;;10.70;7.20;;;;;;;;;;5024638;28;20529;-52
2023/07/02 07:55:56;;;;;;;9.63;6.83;;;;;;;;;;5030523;28;20025;-52
2023/07/02 07:58:21;;;;;;;14.43;7.47;;;;;;;;;;5035555;28;20282;-53
2023/07/02 08:00:46;;;;;;;13.88;7.28;;;;;;;;;;5033234;28;20028;-53
2023/07/02 08:03:12;;;;;;;17.77;7.13;;;;;;;;;;5039920;28;20036;-53
2023/07/02 08:05:37;;;;;;;13.00;7.00;;;;;;;;;;5036467;28;20087;-55
2023/07/02 08:08:02;;;;;;;14.10;6.10;;;;;;;;;;5044162;28;20029;-52
2023/07/02 08:10:28;;;;;;;8.52;5.63;;;;;;;;;;5027854;28;20532;-54
2023/07/02 08:12:53;;;;;;;12.93;7.28;;;;;;;;;;5025137;28;20025;-54
2023/07/02 08:15:19;;;;;;;14.23;6.77;;;;;;;;;;5028299;28;20025;-53
2023/07/02 08:17:44;;;;;;;13.15;6.70;;;;;;;;;;5025062;28;20123;-52
2023/07/02 08:20:10;;;;;;;21.17;7.23;;;;;;;;;;5024503;28;20079;-55
2023/07/02 08:22:38;;;;;;;10.10;5.75;;;;;;;;;;5024936;28;20333;-56
2023/07/02 08:25:04;;;;;;;10.25;6.05;;;;;;;;;;5038358;28;20032;-54
2023/07/02 08:27:30;;;;;;;18.45;6.28;;;;;;;;;;5034378;28;20047;-52
2023/07/02 08:29:55;;;;;;;16.98;5.65;;;;;;;;;;5027173;28;20505;-56
2023/07/02 08:32:20;;;;;;;13.83;5.87;;;;;;;;;;5028662;28;20519;-55
2023/07/02 08:34:46;;;;;;;12.00;5.72;;;;;;;;;;5028739;28;20013;-51
2023/07/02 08:37:11;;;;;;;18.43;5.97;;;;;;;;;;5028244;28;20026;-55
2023/07/02 08:39:39;;;;;;;9.47;5.53;;;;;;;;;;5027925;28;20270;-52
2023/07/02 08:42:04;;;;;;;10.10;5.57;;;;;;;;;;5042980;28;20384;-54
2023/07/02 08:44:30;;;;;;;11.15;5.40;;;;;;;;;;5045970;28;20108;-53
2023/07/02 08:46:56;;;;;;;9.53;6.00;;;;;;;;;;5033205;28;20025;-52
2023/07/02 08:49:22;;;;;;;15.32;6.10;;;;;;;;;;5028411;28;20315;-52
2023/07/02 08:51:47;;;;;;;11.53;5.50;;;;;;;;;;5027961;28;20061;-55
2023/07/02 08:54:12;;;;;;;15.48;6.45;;;;;;;;;;5028081;28;20469;-55
2023/07/02 08:56:38;;;;;;;13.00;6.10;;;;;;;;;;5033931;28;20026;-52
2023/07/02 08:59:06;;;;;;;16.83;6.38;;;;;;;;;;5028415;28;20095;-54
2023/07/02 09:01:31;;;;;;;15.13;6.07;;;;;;;;;;5027976;28;20037;-55
2023/07/02 09:04:02;;;;;;;8.50;5.53;;;;;;;;;;5028268;28;20083;-53
2023/07/02 09:06:27;;;;;;;10.73;5.93;;;;;;;;;;5027872;28;20026;-55
2023/07/02 09:08:52;;;;;;;14.77;7.00;;;;;;;;;;5044982;28;20025;-56
2023/07/02 09:11:19;;;;;;;13.90;6.40;;;;;;;;;;5038301;28;20262;-55
2023/07/02 09:13:44;;;;;;;13.68;6.43;;;;;;;;;;5036349;28;20273;-53
2023/07/02 09:16:27;;;;;;;15.83;7.20;;;;;;;;;;5032080;28;20263;-52
2023/07/02 09:19:02;;;;;;;13.82;5.97;;;;;;;;;;5035543;28;20435;-55
2023/07/02 09:21:28;;;;;;;14.38;6.22;;;;;;;;;;5033144;28;20021;-51
2023/07/02 09:23:54;;;;;;;10.82;5.72;;;;;;;;;;5027499;28;20033;-53
2023/07/02 09:26:20;;;;;;;11.90;5.90;;;;;;;;;;5028474;28;20049;-55
2023/07/02 09:28:45;;;;;;;16.75;6.88;;;;;;;;;;5027380;28;20424;-56
2023/07/02 09:31:10;;;;;;;16.77;5.70;;;;;;;;;;5029603;28;20021;-56
2023/07/02 09:33:35;;;;;;;10.50;5.57;;;;;;;;;;5036711;28;20041;-56
2023/07/02 09:36:01;;;;;;;10.80;6.00;;;;;;;;;;5036410;28;20265;-55
2023/07/02 09:38:26;;;;;;;13.10;7.10;;;;;;;;;;5047360;28;20074;-53
2023/07/02 09:40:53;;;;;;;15.40;6.47;;;;;;;;;;5039963;28;20075;-54
2023/07/02 09:43:19;;;;;;;13.40;7.13;;;;;;;;;;5027399;28;20251;-57
2023/07/02 09:45:45;;;;;;;9.90;6.07;;;;;;;;;;5034325;28;20031;-55
2023/07/02 09:48:12;;;;;;;10.18;6.55;;;;;;;;;;5047489;28;20023;-54
2023/07/02 09:50:38;;;;;;;12.88;7.55;;;;;;;;;;5042343;28;20572;-55
2023/07/02 09:53:03;;;;;;;10.32;6.40;;;;;;;;;;5027559;28;20079;-54
2023/07/02 09:55:29;;;;;;;7.43;5.80;;;;;;;;;;5008270;28;20037;-53
2023/07/02 09:57:54;;;;;;;12.47;6.70;;;;;;;;;;5027207;28;20332;-54
2023/07/02 10:00:19;;;;;;;11.47;6.30;;;;;;;;;;5042415;28;20484;-53
2023/07/02 10:02:49;;;;;;;10.20;5.88;;;;;;;;;;5041148;28;20247;-52
2023/07/02 10:05:27;;;;;;;10.07;5.15;;;;;;;;;;5025601;28;20500;-50
2023/07/02 10:07:52;;;;;;;12.90;6.75;;;;;;;;;;5045335;28;20475;-51
2023/07/02 10:10:30;;;;;;;12.27;6.00;;;;;;;;;;5044492;28;20036;-53
2023/07/02 10:12:56;;;;;;;13.05;4.93;;;;;;;;;;5031323;28;20294;-52
2023/07/02 10:15:28;;;;;;;8.00;4.93;;;;;;;;;;5028837;28;20103;-55
2023/07/02 10:17:57;;;;;;;12.05;6.00;;;;;;;;;;5027903;28;20415;-51
2023/07/02 10:20:35;;;;;;;11.55;9.93;;;;;;;;;;5035454;28;20025;-55
2023/07/02 10:23:01;;;;;;;10.10;4.47;;;;;;;;;;5026878;28;20104;-50
2023/07/02 10:25:31;;;;;;;11.48;4.88;;;;;;;;;;5026711;28;20555;-52
2023/07/02 10:27:57;;;;;;;9.80;4.32;;;;;;;;;;5026695;28;20049;-52
2023/07/02 10:30:35;;;;;;;11.95;4.65;;;;;;;;;;5026999;28;20076;-54
2023/07/02 10:33:27;;;;;;;15.60;4.10;;;;;;;;;;5026871;28;20527;-54
2023/07/02 10:35:52;;;;;;;9.55;4.80;;;;;;;;;;5023272;28;20075;-52
2023/07/02 10:38:19;;;;;;;9.45;4.28;;;;;;;;;;5023839;28;20045;-54
2023/07/02 10:40:44;;;;;;;12.45;4.88;;;;;;;;;;5022750;28;20049;-53
2023/07/02 10:43:10;;;;;;;10.37;4.80;;;;;;;;;;5016511;28;20033;-54
2023/07/02 10:45:36;;;;;;;10.30;5.35;;;;;;;;;;5015819;28;20727;-56
2023/07/02 10:48:04;;;;;;;9.45;4.63;;;;;;;;;;5023669;28;20192;-52
2023/07/02 10:50:30;;;;;;;9.20;5.13;;;;;;;;;;5006627;28;20411;-53
2023/07/02 10:52:55;;;;;;;7.72;5.13;;;;;;;;;;5003608;28;20491;-52
2023/07/02 10:55:21;;;;;;;12.25;5.85;;;;;;;;;;5005234;28;20034;-50
2023/07/02 10:57:48;;;;;;;8.63;5.78;;;;;;;;;;5022935;28;20017;-53
2023/07/02 11:00:13;;;;;;;8.20;5.80;;;;;;;;;;5022882;28;20530;-52
2023/07/02 11:02:39;;;;;;;12.10;6.95;;;;;;;;;;5003837;28;20029;-52
2023/07/02 11:05:06;;;;;;;8.48;5.78;;;;;;;;;;5003995;28;20316;-54
2023/07/02 11:07:31;;;;;;;13.13;5.60;;;;;;;;;;5023274;28;20029;-53
2023/07/02 11:09:56;;;;;;;9.30;4.75;;;;;;;;;;5009692;28;20540;-54
2023/07/02 11:12:28;;;;;;;6.50;4.03;;;;;;;;;;5018279;28;20080;-52
2023/07/02 11:14:54;;;;;;;10.88;5.32;;;;;;;;;;5025430;28;20020;-54
2023/07/02 11:17:24;;;;;;;16.87;11.23;;;;;;;;;;5041841;28;20061;-55
2023/07/02 11:19:51;;;;;;;21.23;16.30;;;;;;;;;;5045432;28;20331;-54
2023/07/02 11:22:16;;;;;;;25.13;22.92;;;;;;;;;;5042886;28;20424;-55
2023/07/02 11:24:42;;;;;;;31.73;29.08;;;;;;;;;;5045211;28;20090;-51
2023/07/02 11:27:07;;;;;;;28.45;26.38;;;;;;;;;;5040770;28;20033;-55
2023/07/02 11:29:33;;;;;;;32.73;30.07;;;;;;;;;;5036385;28;20035;-55
2023/07/02 11:32:09;;;;;;;40.92;37.58;;;;;;;;;;5025323;28;20273;-54
2023/07/02 11:34:35;;;;;;;34.20;31.85;;;;;;;;;;5025404;28;20087;-52
2023/07/02 11:37:00;;;;;;;47.72;44.20;;;;;;;;;;5025602;28;20358;-56
2023/07/02 11:39:25;;;;;;;53.20;49.40;;;;;;;;;;5025244;28;20370;-53
2023/07/02 11:41:52;;;;;;;44.87;41.57;;;;;;;;;;5025356;28;20028;-54
2023/07/02 11:44:17;;;;;;;53.10;49.63;;;;;;;;;;5027416;28;20025;-54
2023/07/02 11:46:43;;;;;;;39.22;36.47;;;;;;;;;;5025045;28;20026;-55
2023/07/02 11:49:08;;;;;;;43.95;40.85;;;;;;;;;;5025596;28;20017;-54
2023/07/02 11:51:35;;;;;;;48.73;45.33;;;;;;;;;;5025746;28;20026;-53
2023/07/02 11:54:00;;;;;;;61.65;57.13;;;;;;;;;;5025093;28;20057;-53
2023/07/02 11:56:26;;;;;;;63.53;59.20;;;;;;;;;;5026279;28;20383;-52
2023/07/02 11:58:51;;;;;;;60.73;56.37;;;;;;;;;;5027001;28;20076;-53
2023/07/02 12:01:16;;;;;;;59.20;55.07;;;;;;;;;;5025238;28;20065;-55
2023/07/02 12:03:41;;;;;;;72.87;67.60;;;;;;;;;;5029479;28;20078;-52
2023/07/02 12:06:07;;;;;;;67.83;62.77;;;;;;;;;;5035984;28;20516;-52
2023/07/02 12:08:32;;;;;;;53.97;49.73;;;;;;;;;;5044654;28;20320;-56
2023/07/02 12:10:57;;;;;;;67.47;62.33;;;;;;;;;;5031831;28;20400;-51
2023/07/02 12:13:22;;;;;;;50.80;46.47;;;;;;;;;;5029316;28;20243;-52
2023/07/02 12:15:49;;;;;;;64.97;60.17;;;;;;;;;;5047640;28;20094;-54
2023/07/02 12:18:14;;;;;;;56.72;52.58;;;;;;;;;;5027850;28;20025;-52
2023/07/02 12:20:40;;;;;;;64.07;59.47;;;;;;;;;;5029161;28;20044;-53
2023/07/02 12:23:05;;;;;;;76.57;71.53;;;;;;;;;;5029170;28;20464;-52
2023/07/02 12:25:30;;;;;;;67.35;62.47;;;;;;;;;;5029772;28;20179;-51
2023/07/02 12:27:56;;;;;;;60.83;57.00;;;;;;;;;;5043206;28;20033;-52
2023/07/02 12:30:21;;;;;;;71.50;66.70;;;;;;;;;;5028908;28;20271;-56
2023/07/02 12:32:46;;;;;;;79.43;74.33;;;;;;;;;;5037284;28;20266;-53
2023/07/02 12:35:12;;;;;;;73.50;68.72;;;;;;;;;;5047724;28;20009;-54
2023/07/02 12:37:47;;;;;;;71.45;66.53;;;;;;;;;;5028597;28;20029;-54
2023/07/02 12:40:13;;;;;;;82.38;76.85;;;;;;;;;;5028725;28;20480;-52
2023/07/02 12:42:38;;;;;;;86.35;80.68;;;;;;;;;;5029423;28;20025;-54
2023/07/02 12:45:05;;;;;;;86.07;80.13;;;;;;;;;;5046467;28;20086;-53
2023/07/02 12:47:30;;;;;;;78.07;72.88;;;;;;;;;;5046178;28;20104;-51
2023/07/02 12:49:55;;;;;;;80.67;75.40;;;;;;;;;;5043165;28;20432;-52
2023/07/02 12:52:21;;;;;;;92.00;86.13;;;;;;;;;;5047264;28;20394;-52
2023/07/02 12:54:46;;;;;;;108.67;101.53;;;;;;;;;;5047764;28;20519;-53
2023/07/02 12:57:11;;;;;;;117.93;109.87;;;;;;;;;;5032015;28;20045;-54
2023/07/02 12:59:36;;;;;;;102.00;95.47;;;;;;;;;;5027832;28;20453;-53
2023/07/02 13:02:02;;;;;;;111.90;104.80;;;;;;;;;;5027176;28;20025;-53
2023/07/02 13:04:27;;;;;;;108.88;101.50;;;;;;;;;;5027727;28;20024;-51
2023/07/02 13:06:53;;;;;;;108.70;101.00;;;;;;;;;;5027650;28;20064;-53
2023/07/02 13:09:18;;;;;;;101.78;94.75;;;;;;;;;;5027444;28;20316;-55
2023/07/02 13:11:43;;;;;;;109.63;101.40;;;;;;;;;;5030757;28;20065;-52
2023/07/02 13:14:10;;;;;;;110.33;102.60;;;;;;;;;;5026998;28;20515;-53
2023/07/02 13:16:35;;;;;;;82.90;76.47;;;;;;;;;;5041461;28;20286;-53
2023/07/02 13:19:02;;;;;;;62.08;57.03;;;;;;;;;;5046315;28;20548;-54
2023/07/02 13:21:28;;;;;;;71.07;65.80;;;;;;;;;;5045890;28;20017;-51
2023/07/02 13:23:53;;;;;;;103.60;96.55;;;;;;;;;;5047278;28;20108;-54
2023/07/02 13:26:19;;;;;;;101.10;94.32;;;;;;;;;;5063125;28;20675;-54
2023/07/02 13:28:47;;;;;;;98.03;90.65;;;;;;;;;;5060567;28;20040;-55
2023/07/02 13:31:13;;;;;;;133.67;124.17;;;;;;;;;;5052897;28;20078;-55
2023/07/02 13:33:39;;;;;;;158.13;146.43;;;;;;;;;;5063982;28;20024;-55
2023/07/02 13:36:04;;;;;;;146.27;135.88;;;;;;;;;;5063458;28;20545;-54
2023/07/02 13:38:30;;;;;;;149.48;139.50;;;;;;;;;;5046342;28;20060;-54
2023/07/02 13:40:55;;;;;;;121.70;113.65;;;;;;;;;;5045866;28;20215;-53
2023/07/02 13:43:21;;;;;;;106.95;99.82;;;;;;;;;;5038334;28;20033;-53
2023/07/02 13:45:46;;;;;;;103.63;96.77;;;;;;;;;;5056754;28;20032;-53
2023/07/02 13:48:11;;;;;;;96.23;89.97;;;;;;;;;;5062118;28;20265;-55
2023/07/02 13:50:36;;;;;;;100.43;93.80;;;;;;;;;;5059784;28;20281;-51
2023/07/02 13:53:02;;;;;;;118.83;110.33;;;;;;;;;;5064508;28;20193;-53
2023/07/02 13:55:28;;;;;;;103.33;96.07;;;;;;;;;;5063323;28;20270;-53
2023/07/02 13:57:55;;;;;;;104.22;96.25;;;;;;;;;;5049616;28;20324;-55
2023/07/02 14:00:21;;;;;;;106.53;99.25;;;;;;;;;;5043523;28;20063;-51
2023/07/02 14:02:46;;;;;;;85.38;79.28;;;;;;;;;;5027159;28;20033;-52
2023/07/02 14:05:12;;;;;;;108.80;101.18;;;;;;;;;;5028098;28;20033;-51
2023/07/02 14:07:38;;;;;;;123.93;115.78;;;;;;;;;;5044642;28;20168;-55